Impacts METAR Board
IDs:

KORD - Chicago/O'Hare Intl, IL, US

Updated at: 0700 UTC 23 Oct 2018
Potential Impact None Slight Moderate High
Time 22/19Z 22/20Z 22/21Z 22/22Z 22/23Z 23/00Z 23/01Z 23/02Z 23/03Z 23/04Z 23/05Z 23/06Z 23/07Z
Temp61 62 64 64 61 58 56 54 54 53 51 49 47
Dewpt36 34 33 32 31 32 34 34 34 34 33 32 31
Altim30.03 30.01 30.01 30.00 30.00 30.02 30.03 30.04 30.04 30.06 30.07 30.09 30.10
VIS10 10 10 10 10 10 10 10 10 10 10 10 10
CIG-- -- -- -- -- -- -- -- -- -- -- -- --
CoverSCTFEWFEWCLRCLRCLRCLRCLRCLRCLRCLRCLRCLR
FltCatVFRVFRVFRVFRVFRVFRVFRVFRVFRVFRVFRVFRVFR
WX--------------------------
WDir260280260250230240250240250270270280280
WSpd8 9 9 7 6 5 7 6 8 8 6 6 5
WGst16 -- -- -- -- -- -- -- -- -- -- -- --
Raw hourly METARs
KORD 221851Z 26008G16KT 10SM SCT250 16/02 A3003 RMK AO2 SLP170 T01610022
KORD 221951Z 28009KT 10SM FEW250 17/01 A3001 RMK AO2 SLP164 T01670011
KORD 222051Z 26009KT 230V310 10SM FEW250 18/01 A3001 RMK AO2 SLP163 T01780006 56008
KORD 222151Z 25007KT 10SM CLR 18/00 A3000 RMK AO2 SLP160 T01780000
KORD 222251Z 23006KT 10SM CLR 16/M01 A3000 RMK AO2 SLP161 T01611006
KORD 222351Z 24005KT 10SM CLR 14/00 A3002 RMK AO2 SLP167 T01440000 10178 20144 53003
KORD 230051Z 25007KT 10SM CLR 13/01 A3003 RMK AO2 SLP172 T01330011
KORD 230151Z 24006KT 10SM CLR 12/01 A3004 RMK AO2 SLP174 T01220011
KORD 230251Z 25008KT 10SM CLR 12/01 A3004 RMK AO2 SLP175 T01220011 51009
KORD 230351Z 27008KT 10SM CLR 12/01 A3006 RMK AO2 SLP181 T01170011
KORD 230451Z 27006KT 10SM CLR 11/01 A3007 RMK AO2 SLP186 T01060006
KORD 230551Z 28006KT 10SM CLR 09/00 A3009 RMK AO2 SLP190 T00940000 10144 20094 401780033 51015
KORD 230651Z 28005KT 10SM CLR 08/M01 A3010 RMK AO2 SLP194 T00831006



Page loaded:  07:56 UTC  |   12:56 AM Pacific  |   01:56 AM Mountain  |   02:56 AM Central  |   03:56 AM Eastern

 

ADVISORIES

FORECASTS

FORECASTS

OBSERVATIONS

USER TOOLS

ABOUT US